Time;durP1;ratioP1;P1;durP2;ratioP2;P2;SDS_P1;SDS_P2;PMS_P1;PMS_P2;Temp;Humidity;BMP_temperature;BMP_pressure;BME280_temperature;BME280_humidity;BME280_pressure;Samples;Min_cycle;Max_cycle;Signal;HPM_P1;HPM_P2
2022/01/12 00:01:05;;;;;;;;;;;3.30;99.90;;;;;;5038822;28;19924;-51
2022/01/12 00:03:32;;;;;;;;;;;3.30;99.90;;;;;;5069934;28;19930;-51
2022/01/12 00:05:58;;;;;;;;;;;3.30;99.90;;;;;;5051306;28;19916;-54
2022/01/12 00:08:25;;;;;;;;;;;3.30;99.90;;;;;;5064984;28;19965;-52
2022/01/12 00:10:50;;;;;;;;;;;3.30;99.90;;;;;;5050842;28;19916;-54
2022/01/12 00:13:16;;;;;;;;;;;3.40;99.90;;;;;;5044765;28;20335;-53
2022/01/12 00:15:42;;;;;;;;;;;3.40;99.90;;;;;;5070733;28;19932;-55
2022/01/12 00:18:08;;;;;;;;;;;3.40;99.90;;;;;;5051985;28;19923;-52
2022/01/12 00:20:33;;;;;;;;;;;3.40;99.90;;;;;;5050735;28;19949;-55
2022/01/12 00:22:59;;;;;;;;;;;3.40;99.90;;;;;;5043757;28;19928;-52
2022/01/12 00:25:30;;;;;;;;;;;3.40;99.90;;;;;;5070384;28;19928;-53
2022/01/12 00:33:25;;;;;;;;;;;3.40;99.90;;;;;;5064461;28;20081;-55
2022/01/12 00:35:52;;;;;;;;;;;3.40;99.90;;;;;;5053298;28;20363;-54
2022/01/12 00:38:19;;;;;;;;;;;3.40;99.90;;;;;;5069303;28;19924;-54
2022/01/12 00:40:47;;;;;;;;;;;3.40;99.90;;;;;;5068864;28;20461;-53
2022/01/12 00:43:13;;;;;;;;;;;3.40;99.90;;;;;;5058670;28;20044;-54
2022/01/12 00:45:44;;;;;;;;;;;3.40;99.90;;;;;;5063714;28;19931;-51
2022/01/12 00:48:10;;;;;;;;;;;3.40;99.90;;;;;;5035912;28;19920;-54
2022/01/12 00:50:37;;;;;;;;;;;3.40;99.90;;;;;;5048091;28;19916;-55
2022/01/12 00:53:06;;;;;;;;;;;3.40;99.90;;;;;;5064012;28;19966;-54
2022/01/12 00:55:32;;;;;;;;;;;3.40;99.90;;;;;;5067794;28;19916;-55
2022/01/12 00:57:58;;;;;;;;;;;3.40;99.90;;;;;;5063905;28;20011;-52
2022/01/12 01:00:24;;;;;;;;;;;3.40;99.90;;;;;;5068528;28;20008;-54
2022/01/12 01:02:50;;;;;;;;;;;3.40;99.90;;;;;;5065690;28;19927;-52
2022/01/12 01:05:20;;;;;;;;;;;3.50;99.90;;;;;;5066230;28;19917;-54
2022/01/12 01:07:46;;;;;;;;;;;3.50;99.90;;;;;;5036035;28;19972;-50
2022/01/12 01:10:17;;;;;;;;;;;3.50;99.90;;;;;;5054918;28;19944;-53
2022/01/12 01:12:45;;;;;;;;;;;3.40;99.90;;;;;;5065062;28;19991;-54
2022/01/12 01:15:14;;;;;;;;;;;3.40;99.90;;;;;;5052613;28;19916;-54
2022/01/12 01:25:42;;;;;;;;;;;3.50;99.90;;;;;;5061901;28;19923;-54
2022/01/12 01:28:08;;;;;;;;;;;3.50;99.90;;;;;;5044938;28;19970;-55
2022/01/12 01:30:37;;;;;;;;;;;3.50;99.90;;;;;;5063675;28;20003;-52
2022/01/12 01:33:06;;;;;;;;;;;3.50;99.90;;;;;;5043322;28;19924;-54
2022/01/12 01:35:32;;;;;;;;;;;3.50;99.90;;;;;;5082138;28;19930;-54
2022/01/12 01:37:59;;;;;;;;;;;3.50;99.90;;;;;;5048853;28;19925;-53
2022/01/12 01:40:26;;;;;;;;;;;3.50;99.90;;;;;;5080316;28;19927;-51
2022/01/12 01:53:37;;;;;;;;;;;3.60;99.90;;;;;;5079067;28;19916;-52
2022/01/12 01:56:03;;;;;;;;;;;3.60;99.90;;;;;;5047180;28;19927;-52
2022/01/12 01:58:29;;;;;;;;;;;3.60;99.90;;;;;;5064848;28;20098;-54
2022/01/12 02:00:55;;;;;;;;;;;3.60;99.90;;;;;;5049804;28;20251;-50
2022/01/12 02:03:25;;;;;;;;;;;3.70;99.90;;;;;;5064420;28;20358;-50
2022/01/12 02:05:51;;;;;;;;;;;3.70;99.90;;;;;;5049255;28;19940;-54
2022/01/12 02:08:17;;;;;;;;;;;3.70;99.90;;;;;;5051657;28;19940;-52
2022/01/12 02:10:42;;;;;;;;;;;3.70;99.90;;;;;;5065957;28;20378;-54
2022/01/12 02:13:09;;;;;;;;;;;3.70;99.90;;;;;;5069054;28;19933;-53
2022/01/12 02:15:36;;;;;;;;;;;3.70;99.90;;;;;;5068797;28;19959;-55
2022/01/12 02:18:16;;;;;;;;;;;3.80;99.90;;;;;;5071013;28;19970;-54
2022/01/12 02:40:28;;;;;;;;;;;3.90;99.90;;;;;;5052438;28;19927;-55
2022/01/12 02:43:17;;;;;;;;;;;3.90;99.90;;;;;;5070069;28;20053;-53
2022/01/12 02:51:27;;;;;;;;;;;3.80;99.90;;;;;;5068259;28;20378;-56
2022/01/12 02:53:53;;;;;;;;;;;3.80;99.90;;;;;;5065698;28;20237;-54
2022/01/12 02:56:23;;;;;;;;;;;3.90;99.90;;;;;;5044425;28;20007;-53
2022/01/12 02:58:49;;;;;;;;;;;3.80;99.90;;;;;;5083356;28;19921;-55
2022/01/12 03:03:59;;;;;;;;;;;3.80;99.90;;;;;;5067793;28;19920;-55
2022/01/12 03:06:32;;;;;;;;;;;3.80;99.90;;;;;;5038370;28;19920;-56
2022/01/12 03:08:58;;;;;;;;;;;3.80;99.90;;;;;;5046225;28;19920;-56
2022/01/12 03:11:25;;;;;;;;;;;3.70;99.90;;;;;;5079703;28;19921;-55
2022/01/12 03:13:51;;;;;;;;;;;3.70;99.90;;;;;;5067337;28;20596;-55
2022/01/12 03:16:20;;;;;;;;;;;3.60;99.90;;;;;;5068487;28;19924;-55
2022/01/12 03:18:50;;;;;;;;;;;3.50;99.90;;;;;;5068943;28;20362;-55
2022/01/12 03:21:17;;;;;;;;;;;3.40;99.90;;;;;;5068790;28;19950;-55
2022/01/12 03:23:43;;;;;;;;;;;3.30;99.90;;;;;;5052999;28;19925;-54
2022/01/12 03:26:09;;;;;;;;;;;3.10;99.90;;;;;;5082082;28;19998;-52
2022/01/12 03:28:35;;;;;;;;;;;3.10;99.90;;;;;;5068757;28;19916;-55
2022/01/12 03:31:13;;;;;;;;;;;3.10;99.90;;;;;;5049968;28;20255;-55
2022/01/12 03:38:51;;;;;;;;;;;2.90;99.90;;;;;;5063740;28;19931;-55
2022/01/12 03:41:17;;;;;;;;;;;2.80;99.90;;;;;;5081887;28;20489;-54
2022/01/12 03:43:42;;;;;;;;;;;2.70;99.90;;;;;;5049647;28;20033;-54
2022/01/12 03:46:08;;;;;;;;;;;2.70;99.90;;;;;;5050228;28;19929;-51
2022/01/12 03:48:34;;;;;;;;;;;2.60;99.90;;;;;;5068548;28;20366;-54
2022/01/12 03:51:00;;;;;;;;;;;2.60;99.90;;;;;;5068237;28;20481;-54
2022/01/12 03:53:25;;;;;;;;;;;2.60;99.90;;;;;;5068023;28;19923;-54
2022/01/12 03:55:51;;;;;;;;;;;2.60;99.90;;;;;;5062583;28;19923;-55
2022/01/12 03:58:17;;;;;;;;;;;2.60;99.90;;;;;;5066569;28;19916;-51
2022/01/12 04:00:43;;;;;;;;;;;2.60;99.90;;;;;;5067899;28;20727;-55
2022/01/12 04:03:09;;;;;;;;;;;2.60;99.90;;;;;;5066087;28;20362;-53
2022/01/12 04:08:20;;;;;;;;;;;2.60;99.90;;;;;;5050972;28;19920;-55
2022/01/12 04:10:53;;;;;;;;;;;2.60;99.90;;;;;;5067822;28;19941;-54
2022/01/12 04:13:22;;;;;;;;;;;2.60;99.90;;;;;;5061131;28;19920;-56
2022/01/12 04:15:52;;;;;;;;;;;2.60;99.90;;;;;;5048685;28;19923;-55
2022/01/12 04:18:17;;;;;;;;;;;2.50;99.90;;;;;;5067625;28;19920;-52
2022/01/12 04:20:48;;;;;;;;;;;2.40;99.90;;;;;;5062892;28;19935;-54
2022/01/12 04:23:17;;;;;;;;;;;2.40;99.90;;;;;;5063300;28;20255;-53
2022/01/12 04:25:44;;;;;;;;;;;2.30;99.90;;;;;;5073527;28;19924;-55
2022/01/12 04:28:10;;;;;;;;;;;2.30;99.90;;;;;;5068105;28;19969;-53
2022/01/12 04:30:35;;;;;;;;;;;2.30;99.90;;;;;;5086337;28;20189;-55
2022/01/12 04:33:01;;;;;;;;;;;2.20;99.90;;;;;;5080743;28;19994;-53
2022/01/12 04:35:32;;;;;;;;;;;2.20;99.90;;;;;;5086090;28;19923;-54
2022/01/12 04:37:58;;;;;;;;;;;2.20;99.90;;;;;;5084617;28;20261;-52
2022/01/12 04:40:23;;;;;;;;;;;2.10;99.90;;;;;;5087301;28;19923;-53
2022/01/12 04:42:49;;;;;;;;;;;2.10;99.90;;;;;;5068877;28;20014;-55
2022/01/12 04:45:32;;;;;;;;;;;2.20;99.90;;;;;;5071865;28;19954;-54
2022/01/12 04:50:25;;;;;;;;;;;2.20;99.90;;;;;;5087871;28;20007;-53
2022/01/12 04:52:51;;;;;;;;;;;2.20;99.90;;;;;;5085721;28;20014;-55
2022/01/12 04:55:17;;;;;;;;;;;2.10;99.90;;;;;;5080554;28;19991;-54
2022/01/12 04:57:43;;;;;;;;;;;2.10;99.90;;;;;;5101880;27;19930;-53
2022/01/12 05:00:15;;;;;;;;;;;2.10;99.90;;;;;;5068704;28;19970;-54
2022/01/12 05:13:23;;;;;;;;;;;1.90;99.90;;;;;;5080191;28;19916;-54
2022/01/12 05:15:49;;;;;;;;;;;1.90;99.90;;;;;;5086776;28;20376;-55
2022/01/12 05:18:15;;;;;;;;;;;1.90;99.90;;;;;;5082328;28;19917;-53
2022/01/12 05:20:41;;;;;;;;;;;1.90;99.90;;;;;;5086410;28;19927;-54
2022/01/12 05:23:07;;;;;;;;;;;1.90;99.90;;;;;;5085701;28;19919;-54
2022/01/12 05:25:32;;;;;;;;;;;1.90;99.90;;;;;;5066107;28;19920;-55
2022/01/12 05:27:58;;;;;;;;;;;2.00;99.90;;;;;;5084885;28;19920;-56
2022/01/12 05:30:24;;;;;;;;;;;2.00;99.90;;;;;;5082433;28;19922;-55
2022/01/12 05:32:50;;;;;;;;;;;2.00;99.90;;;;;;5083464;28;19920;-55
2022/01/12 05:35:17;;;;;;;;;;;2.10;99.90;;;;;;5089505;28;19927;-54
2022/01/12 05:37:44;;;;;;;;;;;2.10;99.90;;;;;;5068539;28;19924;-55
2022/01/12 05:40:11;;;;;;;;;;;2.10;99.90;;;;;;5070356;28;19920;-55
2022/01/12 05:42:37;;;;;;;;;;;2.10;99.90;;;;;;5056843;28;20337;-54
2022/01/12 05:45:04;;;;;;;;;;;2.10;99.90;;;;;;5097110;28;20046;-55
2022/01/12 05:47:39;;;;;;;;;;;2.10;99.90;;;;;;5069634;28;20211;-55
2022/01/12 05:50:04;;;;;;;;;;;2.10;99.90;;;;;;5068289;28;20081;-54
2022/01/12 05:52:30;;;;;;;;;;;2.00;99.90;;;;;;5086726;28;20019;-55
2022/01/12 05:54:56;;;;;;;;;;;1.90;99.90;;;;;;5088832;28;19916;-55
2022/01/12 05:57:22;;;;;;;;;;;1.90;99.90;;;;;;5057055;28;19916;-54
2022/01/12 05:59:48;;;;;;;;;;;1.80;99.90;;;;;;5090233;28;19923;-55
2022/01/12 06:02:13;;;;;;;;;;;1.80;99.90;;;;;;5072656;28;19924;-54
2022/01/12 06:04:41;;;;;;;;;;;1.70;99.90;;;;;;5071971;28;19919;-55
2022/01/12 06:07:07;;;;;;;;;;;1.60;99.90;;;;;;5072569;28;19923;-52
2022/01/12 06:09:32;;;;;;;;;;;1.60;99.90;;;;;;5090664;28;19981;-54
2022/01/12 06:11:58;;;;;;;;;;;1.50;99.90;;;;;;5087564;28;19919;-52
2022/01/12 06:14:24;;;;;;;;;;;1.50;99.90;;;;;;5086051;28;20374;-50
2022/01/12 06:16:50;;;;;;;;;;;1.50;99.90;;;;;;5087862;28;19916;-52
2022/01/12 06:19:16;;;;;;;;;;;1.50;99.90;;;;;;5071933;28;19922;-51
2022/01/12 06:21:42;;;;;;;;;;;1.50;99.90;;;;;;5090304;28;19920;-53
2022/01/12 06:24:07;;;;;;;;;;;1.60;99.90;;;;;;5066657;28;19997;-51
2022/01/12 06:26:40;;;;;;;;;;;1.50;99.90;;;;;;5069382;28;20002;-53
2022/01/12 06:31:35;;;;;;;;;;;1.50;99.90;;;;;;5071676;28;20641;-52
2022/01/12 06:34:01;;;;;;;;;;;1.40;99.90;;;;;;5071983;28;19920;-53
2022/01/12 06:36:27;;;;;;;;;;;1.40;99.90;;;;;;5054379;28;20373;-52
2022/01/12 06:38:53;;;;;;;;;;;1.30;99.90;;;;;;5076877;28;19969;-51
2022/01/12 06:41:19;;;;;;;;;;;1.30;99.90;;;;;;5068913;28;19924;-54
2022/01/12 06:43:45;;;;;;;;;;;1.20;99.90;;;;;;5082670;28;19978;-54
2022/01/12 06:46:11;;;;;;;;;;;1.10;99.90;;;;;;5065154;28;21064;-50
2022/01/12 06:48:37;;;;;;;;;;;1.00;99.90;;;;;;5070731;28;19920;-51
2022/01/12 06:51:03;;;;;;;;;;;1.00;99.90;;;;;;5068466;28;19944;-51
2022/01/12 06:53:29;;;;;;;;;;;1.00;99.90;;;;;;5063150;28;19920;-51
2022/01/12 06:55:55;;;;;;;;;;;1.00;99.90;;;;;;5067285;28;20270;-53
2022/01/12 06:58:21;;;;;;;;;;;1.00;99.90;;;;;;5068216;28;19935;-54
2022/01/12 07:00:47;;;;;;;;;;;1.00;99.90;;;;;;5068129;28;20045;-50
2022/01/12 07:03:13;;;;;;;;;;;0.90;99.90;;;;;;5066535;28;20441;-50
2022/01/12 07:05:39;;;;;;;;;;;0.90;99.90;;;;;;5082249;28;19920;-52
2022/01/12 07:08:05;;;;;;;;;;;0.90;99.90;;;;;;5081315;28;19923;-54
2022/01/12 07:10:30;;;;;;;;;;;0.90;99.90;;;;;;5068999;28;19917;-51
2022/01/12 07:12:56;;;;;;;;;;;0.90;99.90;;;;;;5068997;28;20016;-54
2022/01/12 07:15:28;;;;;;;;;;;0.90;99.90;;;;;;5066071;28;19924;-52
2022/01/12 07:17:54;;;;;;;;;;;0.90;99.90;;;;;;5067153;28;20382;-54
2022/01/12 07:20:19;;;;;;;;;;;1.00;99.90;;;;;;5067604;28;19929;-54
2022/01/12 07:22:45;;;;;;;;;;;0.90;99.90;;;;;;5068161;28;19985;-51
2022/01/12 07:25:23;;;;;;;;;;;0.90;99.90;;;;;;5067333;28;19971;-52
2022/01/12 07:27:49;;;;;;;;;;;0.90;99.90;;;;;;5068628;28;20334;-54
2022/01/12 07:30:15;;;;;;;;;;;0.90;99.90;;;;;;5089295;28;19923;-55
2022/01/12 07:32:40;;;;;;;;;;;0.90;99.90;;;;;;5087115;28;19916;-51
2022/01/12 07:35:06;;;;;;;;;;;0.90;99.90;;;;;;5087543;28;19924;-54
2022/01/12 07:37:32;;;;;;;;;;;0.80;99.90;;;;;;5087733;28;20573;-53
2022/01/12 07:39:58;;;;;;;;;;;0.90;99.90;;;;;;5084625;28;20007;-52
2022/01/12 07:42:24;;;;;;;;;;;0.80;99.90;;;;;;5058621;28;19986;-51
2022/01/12 07:44:58;;;;;;;;;;;0.80;99.90;;;;;;5104450;27;19924;-53
2022/01/12 07:47:24;;;;;;;;;;;0.80;99.90;;;;;;5105347;28;19946;-53
2022/01/12 07:49:57;;;;;;;;;;;0.70;99.90;;;;;;5070284;28;20416;-54
2022/01/12 07:52:23;;;;;;;;;;;0.80;99.90;;;;;;5086119;28;20374;-52
2022/01/12 07:54:49;;;;;;;;;;;0.70;99.90;;;;;;5071066;28;19926;-54
2022/01/12 07:57:15;;;;;;;;;;;0.80;99.90;;;;;;5087055;28;19920;-54
2022/01/12 07:59:40;;;;;;;;;;;0.80;99.90;;;;;;5088046;28;19920;-54
2022/01/12 08:02:06;;;;;;;;;;;0.80;99.90;;;;;;5071413;28;19988;-54
2022/01/12 08:04:32;;;;;;;;;;;0.80;99.90;;;;;;5088139;28;19920;-55
2022/01/12 08:06:58;;;;;;;;;;;0.80;99.90;;;;;;5088208;28;19962;-52
2022/01/12 08:09:24;;;;;;;;;;;0.80;99.90;;;;;;5073272;28;19978;-52
2022/01/12 08:11:50;;;;;;;;;;;0.80;99.90;;;;;;5069941;28;19971;-53
2022/01/12 08:14:16;;;;;;;;;;;0.80;99.90;;;;;;5071686;28;19967;-52
2022/01/12 08:16:42;;;;;;;;;;;0.80;99.90;;;;;;5072507;28;20336;-51
2022/01/12 08:19:08;;;;;;;;;;;0.90;99.90;;;;;;5076034;28;19923;-51
2022/01/12 08:21:34;;;;;;;;;;;0.90;99.90;;;;;;5072986;28;19928;-52
2022/01/12 08:23:59;;;;;;;;;;;0.90;99.90;;;;;;5103015;27;20385;-53
2022/01/12 08:26:25;;;;;;;;;;;0.90;99.90;;;;;;5071282;28;20013;-51
2022/01/12 08:28:51;;;;;;;;;;;0.90;99.90;;;;;;5072361;28;19923;-51
2022/01/12 08:31:17;;;;;;;;;;;0.90;99.90;;;;;;5087231;28;19916;-54
2022/01/12 08:33:44;;;;;;;;;;;1.00;99.90;;;;;;5083602;28;20007;-54
2022/01/12 08:36:10;;;;;;;;;;;1.00;99.90;;;;;;5084527;28;19931;-51
2022/01/12 08:38:36;;;;;;;;;;;1.00;99.90;;;;;;5086848;28;19917;-53
2022/01/12 08:41:02;;;;;;;;;;;1.00;99.90;;;;;;5071117;28;19920;-52
2022/01/12 08:43:28;;;;;;;;;;;1.10;99.90;;;;;;5108000;27;20041;-55
2022/01/12 08:45:54;;;;;;;;;;;1.10;99.90;;;;;;5069093;28;19927;-52
2022/01/12 08:48:20;;;;;;;;;;;1.20;99.90;;;;;;5077454;28;19916;-54
2022/01/12 08:50:46;;;;;;;;;;;1.20;99.90;;;;;;5053305;28;19963;-50
2022/01/12 08:53:12;;;;;;;;;;;1.30;99.90;;;;;;5088920;28;20016;-53
2022/01/12 08:55:38;;;;;;;;;;;1.30;99.90;;;;;;5100770;27;19942;-55
2022/01/12 08:58:04;;;;;;;;;;;1.40;99.90;;;;;;5072706;28;19963;-56
2022/01/12 09:00:30;;;;;;;;;;;1.40;99.90;;;;;;5052642;28;19925;-53
2022/01/12 09:02:55;;;;;;;;;;;1.50;99.90;;;;;;5088590;28;19942;-52
2022/01/12 09:05:21;;;;;;;;;;;1.50;99.90;;;;;;5090284;28;19924;-54
2022/01/12 09:07:47;;;;;;;;;;;1.60;99.90;;;;;;5085286;28;19937;-54
2022/01/12 09:10:14;;;;;;;;;;;1.60;99.90;;;;;;5070539;28;20627;-54
2022/01/12 09:12:39;;;;;;;;;;;1.60;99.90;;;;;;5086943;28;19916;-55
2022/01/12 09:15:06;;;;;;;;;;;1.70;99.90;;;;;;5069551;28;19920;-55
2022/01/12 09:17:32;;;;;;;;;;;1.80;99.90;;;;;;5085363;28;19981;-55
2022/01/12 09:19:57;;;;;;;;;;;1.80;99.90;;;;;;5088685;28;19919;-55
2022/01/12 09:22:23;;;;;;;;;;;1.80;99.90;;;;;;5068706;28;19924;-52
2022/01/12 09:24:49;;;;;;;;;;;1.90;99.90;;;;;;5065209;28;19945;-56
2022/01/12 09:27:16;;;;;;;;;;;2.00;99.90;;;;;;5087654;28;20101;-54
2022/01/12 09:29:42;;;;;;;;;;;2.00;99.90;;;;;;5070329;28;19915;-55
2022/01/12 09:32:08;;;;;;;;;;;2.10;99.90;;;;;;5071445;28;19924;-55
2022/01/12 09:34:34;;;;;;;;;;;2.20;99.90;;;;;;5067082;28;19939;-54
2022/01/12 09:37:00;;;;;;;;;;;2.20;99.90;;;;;;5069339;28;19924;-55
2022/01/12 09:39:26;;;;;;;;;;;2.20;99.90;;;;;;5084653;28;19963;-56
2022/01/12 09:41:52;;;;;;;;;;;2.30;99.90;;;;;;5055028;28;19973;-55
2022/01/12 09:44:18;;;;;;;;;;;2.40;99.90;;;;;;5087428;28;19924;-56
2022/01/12 09:46:44;;;;;;;;;;;2.50;99.90;;;;;;5084635;28;20917;-56
2022/01/12 09:49:10;;;;;;;;;;;2.60;99.90;;;;;;5088892;28;19985;-56
2022/01/12 09:51:36;;;;;;;;;;;2.60;99.90;;;;;;5086267;28;19971;-56
2022/01/12 09:54:03;;;;;;;;;;;2.70;99.90;;;;;;5072784;28;19976;-54
2022/01/12 09:56:30;;;;;;;;;;;2.70;99.90;;;;;;5049430;28;20591;-55
2022/01/12 09:58:57;;;;;;;;;;;3.00;99.90;;;;;;5101059;28;19930;-55
2022/01/12 10:01:27;;;;;;;;;;;2.80;99.90;;;;;;5083920;28;19928;-56
2022/01/12 10:03:53;;;;;;;;;;;2.90;99.90;;;;;;5071951;28;19935;-55
2022/01/12 10:06:18;;;;;;;;;;;2.80;99.90;;;;;;5084403;28;19921;-51
2022/01/12 10:08:44;;;;;;;;;;;2.90;99.90;;;;;;5087404;28;19916;-54
2022/01/12 10:11:13;;;;;;;;;;;2.90;99.90;;;;;;5068472;28;20386;-56
2022/01/12 10:13:40;;;;;;;;;;;2.90;99.90;;;;;;5053029;28;19926;-54
2022/01/12 10:16:17;;;;;;;;;;;3.00;99.90;;;;;;5069652;28;19923;-55
2022/01/12 10:18:44;;;;;;;;;;;3.00;99.90;;;;;;5084051;28;19931;-55
2022/01/12 10:21:09;;;;;;;;;;;3.10;99.90;;;;;;5072556;28;19924;-55
2022/01/12 10:23:38;;;;;;;;;;;3.20;99.90;;;;;;5086674;28;20018;-55
2022/01/12 10:26:09;;;;;;;;;;;3.20;99.90;;;;;;5071557;28;19956;-55
2022/01/12 10:28:35;;;;;;;;;;;3.30;99.90;;;;;;5071564;28;20342;-56
2022/01/12 10:31:02;;;;;;;;;;;3.40;99.90;;;;;;5075336;28;20553;-52
2022/01/12 10:33:29;;;;;;;;;;;3.50;99.90;;;;;;5061367;28;21235;-55
2022/01/12 10:35:56;;;;;;;;;;;3.50;99.90;;;;;;5077134;28;19969;-56
2022/01/12 10:38:22;;;;;;;;;;;3.60;99.90;;;;;;5091026;28;19932;-55
2022/01/12 10:40:48;;;;;;;;;;;3.60;99.90;;;;;;5078842;28;19940;-57
2022/01/12 10:43:26;;;;;;;;;;;3.70;99.90;;;;;;5088019;28;20041;-56
2022/01/12 10:45:52;;;;;;;;;;;3.80;99.90;;;;;;5086146;28;20436;-55
2022/01/12 10:48:18;;;;;;;;;;;3.80;99.90;;;;;;5088392;28;20007;-57
2022/01/12 10:50:54;;;;;;;;;;;3.80;99.90;;;;;;5094940;28;20281;-56
2022/01/12 10:53:31;;;;;;;;;;;3.80;99.90;;;;;;5075071;28;19923;-56
2022/01/12 10:56:04;;;;;;;;;;;3.80;99.90;;;;;;5089570;28;19915;-57
2022/01/12 10:58:30;;;;;;;;;;;3.80;99.90;;;;;;5079269;28;20242;-57
2022/01/12 11:00:57;;;;;;;;;;;3.90;99.90;;;;;;5090382;28;19920;-57
2022/01/12 11:03:22;;;;;;;;;;;4.00;99.90;;;;;;5070667;28;19930;-56
2022/01/12 11:05:49;;;;;;;;;;;4.00;99.90;;;;;;5082845;28;19920;-55
2022/01/12 11:08:14;;;;;;;;;;;4.10;99.90;;;;;;5076109;28;19916;-57
2022/01/12 11:10:40;;;;;;;;;;;4.10;99.90;;;;;;5089645;28;20750;-56
2022/01/12 11:13:06;;;;;;;;;;;4.30;99.90;;;;;;5067421;28;19924;-57
2022/01/12 11:15:33;;;;;;;;;;;4.30;99.90;;;;;;5090108;28;20374;-55
2022/01/12 11:18:02;;;;;;;;;;;4.40;99.90;;;;;;5092671;28;20396;-55
2022/01/12 11:20:28;;;;;;;;;;;4.50;99.90;;;;;;5057930;28;20000;-56
2022/01/12 11:23:04;;;;;;;;;;;4.60;99.90;;;;;;5065959;28;19924;-56
2022/01/12 11:25:31;;;;;;;;;;;4.70;99.90;;;;;;5063872;28;20524;-57
2022/01/12 11:28:03;;;;;;;;;;;4.80;99.90;;;;;;5047276;28;19921;-55
2022/01/12 11:30:33;;;;;;;;;;;4.80;99.90;;;;;;5066480;28;19920;-57
2022/01/12 11:33:00;;;;;;;;;;;4.90;99.90;;;;;;5050100;28;19924;-56
2022/01/12 11:35:27;;;;;;;;;;;5.00;99.90;;;;;;5051355;28;20007;-54
2022/01/12 11:37:57;;;;;;;;;;;5.00;99.90;;;;;;5066656;28;20388;-57
2022/01/12 11:40:54;;;;;;;;;;;5.00;99.90;;;;;;5065438;28;19957;-55
2022/01/12 11:43:25;;;;;;;;;;;5.20;99.90;;;;;;5031534;28;20007;-56
2022/01/12 11:46:14;;;;;;;;;;;5.20;99.90;;;;;;5068274;28;19916;-57
2022/01/12 11:48:46;;;;;;;;;;;5.20;99.90;;;;;;5049866;28;20392;-57
2022/01/12 11:51:13;;;;;;;;;;;5.30;99.90;;;;;;5043148;28;19916;-55
2022/01/12 11:53:59;;;;;;;;;;;5.30;99.90;;;;;;5049550;28;19927;-57
2022/01/12 11:56:26;;;;;;;;;;;5.40;99.90;;;;;;5035781;28;19920;-56
2022/01/12 11:58:56;;;;;;;;;;;5.40;99.90;;;;;;5067785;28;19935;-56
2022/01/12 12:01:22;;;;;;;;;;;5.40;99.90;;;;;;5068312;28;19924;-56
2022/01/12 12:03:58;;;;;;;;;;;5.40;99.90;;;;;;5048464;28;19946;-56
2022/01/12 12:06:24;;;;;;;;;;;5.30;99.90;;;;;;5064812;28;20327;-53
2022/01/12 12:08:56;;;;;;;;;;;5.40;99.90;;;;;;5062827;28;19978;-54
2022/01/12 12:11:24;;;;;;;;;;;5.40;99.90;;;;;;5065035;28;19962;-55
2022/01/12 12:13:50;;;;;;;;;;;5.40;99.90;;;;;;5062239;28;20248;-55
2022/01/12 12:16:16;;;;;;;;;;;5.50;99.90;;;;;;5041151;28;20408;-56
2022/01/12 12:18:42;;;;;;;;;;;5.50;99.90;;;;;;5066010;28;19932;-56
2022/01/12 12:21:08;;;;;;;;;;;5.50;99.90;;;;;;5069221;28;19931;-56
2022/01/12 12:23:33;;;;;;;;;;;5.50;99.90;;;;;;5037456;28;19928;-54
2022/01/12 12:26:00;;;;;;;;;;;5.60;99.90;;;;;;5032711;28;19920;-55
2022/01/12 12:28:26;;;;;;;;;;;5.60;99.90;;;;;;5049967;28;19965;-55
2022/01/12 12:30:51;;;;;;;;;;;5.60;99.90;;;;;;5075663;28;19971;-55
2022/01/12 12:33:17;;;;;;;;;;;5.60;99.90;;;;;;5031760;28;19970;-54
2022/01/12 12:35:43;;;;;;;;;;;5.70;99.90;;;;;;5082037;28;19924;-56
2022/01/12 12:38:14;;;;;;;;;;;5.70;99.90;;;;;;5080255;28;19920;-55
2022/01/12 12:40:45;;;;;;;;;;;5.70;99.90;;;;;;5065821;28;19978;-56
2022/01/12 12:43:13;;;;;;;;;;;5.70;99.90;;;;;;5048855;28;20003;-54
2022/01/12 12:45:42;;;;;;;;;;;5.70;99.90;;;;;;5044282;28;19924;-52
2022/01/12 12:48:08;;;;;;;;;;;5.80;99.90;;;;;;5044495;28;20015;-54
2022/01/12 12:50:53;;;;;;;;;;;5.80;99.90;;;;;;5066874;28;19916;-53
2022/01/12 12:53:19;;;;;;;;;;;5.80;99.90;;;;;;5049158;28;19920;-56
2022/01/12 12:55:45;;;;;;;;;;;5.80;99.90;;;;;;5046219;28;20085;-55
2022/01/12 12:58:13;;;;;;;;;;;5.90;99.90;;;;;;5066485;28;19927;-56
2022/01/12 13:00:39;;;;;;;;;;;5.90;99.90;;;;;;5079490;28;20620;-55
2022/01/12 13:03:05;;;;;;;;;;;5.90;99.90;;;;;;5083819;28;19916;-53
2022/01/12 13:05:33;;;;;;;;;;;5.90;99.90;;;;;;5051313;28;20293;-52
2022/01/12 13:07:59;;;;;;;;;;;5.80;99.90;;;;;;5049427;28;20419;-55
2022/01/12 13:10:26;;;;;;;;;;;5.80;99.90;;;;;;5065913;28;19920;-53
2022/01/12 13:12:52;;;;;;;;;;;5.80;99.90;;;;;;5068822;28;19924;-53
2022/01/12 13:15:35;;;;;;;;;;;5.80;99.90;;;;;;5063598;28;19917;-54
2022/01/12 13:18:07;;;;;;;;;;;5.90;99.90;;;;;;5047396;28;19922;-54
2022/01/12 13:23:18;;;;;;;;;;;5.80;99.90;;;;;;5078238;28;19924;-54
2022/01/12 13:25:48;;;;;;;;;;;5.90;99.90;;;;;;5066794;28;19924;-53
2022/01/12 13:28:13;;;;;;;;;;;5.90;99.90;;;;;;5062873;28;19959;-53
2022/01/12 13:30:53;;;;;;;;;;;5.90;99.90;;;;;;5069486;28;19967;-55
2022/01/12 13:33:24;;;;;;;;;;;5.90;99.90;;;;;;5063677;28;19920;-56
2022/01/12 13:35:50;;;;;;;;;;;5.80;99.90;;;;;;5068502;28;20211;-51
2022/01/12 13:38:23;;;;;;;;;;;5.80;99.90;;;;;;5047753;28;19962;-55
2022/01/12 13:40:49;;;;;;;;;;;5.80;99.90;;;;;;5059704;28;19925;-55
2022/01/12 13:43:19;;;;;;;;;;;5.80;99.90;;;;;;5068648;28;19962;-53
2022/01/12 13:45:48;;;;;;;;;;;5.80;99.90;;;;;;5085836;28;20430;-53
2022/01/12 13:48:17;;;;;;;;;;;5.80;99.90;;;;;;5067506;28;19920;-53
2022/01/12 13:50:52;;;;;;;;;;;5.80;99.90;;;;;;5049967;28;20202;-51
2022/01/12 13:53:18;;;;;;;;;;;5.70;99.90;;;;;;5062746;28;19981;-50
2022/01/12 13:55:49;;;;;;;;;;;5.70;99.90;;;;;;5051516;28;19921;-51
2022/01/12 13:58:15;;;;;;;;;;;5.70;99.90;;;;;;5047528;28;19917;-53
2022/01/12 14:00:41;;;;;;;;;;;5.60;99.90;;;;;;5052732;28;19943;-54
2022/01/12 14:03:19;;;;;;;;;;;5.60;99.90;;;;;;5065633;28;20449;-51
2022/01/12 14:05:46;;;;;;;;;;;5.60;99.90;;;;;;5068328;28;20050;-51
2022/01/12 14:08:13;;;;;;;;;;;5.60;99.90;;;;;;5055671;28;19942;-51
2022/01/12 14:10:43;;;;;;;;;;;5.50;99.90;;;;;;5069425;28;19916;-50
2022/01/12 14:13:09;;;;;;;;;;;5.50;99.90;;;;;;5060913;28;20309;-50
2022/01/12 14:15:35;;;;;;;;;;;5.40;99.90;;;;;;5055869;28;19916;-50
2022/01/12 14:18:01;;;;;;;;;;;5.40;99.90;;;;;;5067035;28;19916;-54
2022/01/12 14:20:36;;;;;;;;;;;5.40;99.90;;;;;;5070022;28;19956;-50
2022/01/12 14:23:06;;;;;;;;;;;5.30;99.90;;;;;;5068251;28;19924;-54
2022/01/12 14:25:40;;;;;;;;;;;5.40;99.90;;;;;;5049705;28;20651;-52
2022/01/12 14:28:08;;;;;;;;;;;5.20;99.90;;;;;;5050248;28;19916;-54
2022/01/12 14:30:35;;;;;;;;;;;5.10;99.90;;;;;;5068703;28;19924;-53
2022/01/12 14:33:00;;;;;;;;;;;5.10;99.90;;;;;;5071197;28;19974;-54
2022/01/12 14:35:26;;;;;;;;;;;5.10;99.90;;;;;;5034168;28;20005;-54
2022/01/12 14:37:53;;;;;;;;;;;5.00;99.90;;;;;;5018474;28;19927;-52
2022/01/12 14:40:19;;;;;;;;;;;5.00;99.90;;;;;;5068880;28;19934;-51
2022/01/12 14:42:46;;;;;;;;;;;5.00;99.90;;;;;;5032769;28;19920;-51
2022/01/12 14:45:14;;;;;;;;;;;4.90;99.90;;;;;;5083844;28;19916;-54
2022/01/12 14:47:40;;;;;;;;;;;4.90;99.90;;;;;;5049361;28;19931;-53
2022/01/12 14:50:06;;;;;;;;;;;4.90;99.90;;;;;;5052262;28;20346;-53
2022/01/12 14:52:33;;;;;;;;;;;4.90;99.90;;;;;;5032310;28;19916;-51
2022/01/12 14:54:59;;;;;;;;;;;4.90;99.90;;;;;;5064686;28;19924;-54
2022/01/12 14:57:31;;;;;;;;;;;4.90;99.90;;;;;;5066823;28;20247;-53
2022/01/12 14:59:58;;;;;;;;;;;4.90;99.90;;;;;;5052342;28;19920;-53
2022/01/12 15:02:25;;;;;;;;;;;4.80;99.90;;;;;;5063606;28;20330;-54
2022/01/12 15:04:51;;;;;;;;;;;4.80;99.90;;;;;;5067915;28;19924;-53
2022/01/12 15:07:17;;;;;;;;;;;4.90;99.90;;;;;;5050925;28;20461;-55
2022/01/12 15:09:44;;;;;;;;;;;4.90;99.90;;;;;;5035409;28;19975;-55
2022/01/12 15:12:27;;;;;;;;;;;4.80;99.90;;;;;;5084075;28;20350;-54
2022/01/12 15:15:00;;;;;;;;;;;4.80;99.90;;;;;;5046508;28;19924;-55
2022/01/12 15:17:26;;;;;;;;;;;4.80;99.90;;;;;;5065070;28;19939;-56
2022/01/12 15:19:52;;;;;;;;;;;4.80;99.90;;;;;;5048391;28;19916;-54
2022/01/12 15:22:18;;;;;;;;;;;4.80;99.90;;;;;;5051045;28;19931;-54
2022/01/12 15:24:44;;;;;;;;;;;4.70;99.90;;;;;;5051741;28;19956;-55
2022/01/12 15:27:10;;;;;;;;;;;4.70;99.90;;;;;;5071267;28;19924;-55
2022/01/12 15:29:35;;;;;;;;;;;4.70;99.90;;;;;;5053846;28;19924;-56
2022/01/12 15:32:01;;;;;;;;;;;4.70;99.90;;;;;;5072430;28;19915;-54
2022/01/12 15:34:27;;;;;;;;;;;4.70;99.90;;;;;;5054938;28;20300;-52
2022/01/12 15:36:52;;;;;;;;;;;4.70;99.90;;;;;;5057450;28;19935;-54
2022/01/12 15:39:18;;;;;;;;;;;4.70;99.90;;;;;;5083220;28;20343;-56
2022/01/12 15:41:44;;;;;;;;;;;4.70;99.90;;;;;;5035917;28;19935;-54
2022/01/12 15:44:35;;;;;;;;;;;4.70;99.90;;;;;;5052023;28;19974;-52
2022/01/12 15:47:01;;;;;;;;;;;4.70;99.90;;;;;;5088518;28;19977;-55
2022/01/12 15:49:29;;;;;;;;;;;4.70;99.90;;;;;;5050640;28;20011;-54
2022/01/12 15:51:56;;;;;;;;;;;4.80;99.90;;;;;;5053911;28;19920;-54